Time;durP1;ratioP1;P1;durP2;ratioP2;P2;SDS_P1;SDS_P2;PMS_P1;PMS_P2;Temp;Humidity;BMP_temperature;BMP_pressure;BME280_temperature;BME280_humidity;BME280_pressure;Samples;Min_cycle;Max_cycle;Signal;HPM_P1;HPM_P2
2022/07/15 00:00:11;;;;;;;1.63;1.30;;;24.00;53.50;;;;;;5097474;28;20528;-92
2022/07/15 00:02:38;;;;;;;2.63;1.40;;;24.00;53.70;;;;;;5114969;28;20455;-92
2022/07/15 00:05:08;;;;;;;4.07;1.60;;;24.00;53.60;;;;;;5097959;28;20174;-92
2022/07/15 00:07:35;;;;;;;2.33;1.53;;;24.00;53.70;;;;;;5097786;28;20170;-92
2022/07/15 00:10:20;;;;;;;2.70;1.30;;;24.00;53.70;;;;;;5098139;28;20202;-92
2022/07/15 00:12:57;;;;;;;2.10;1.47;;;24.00;53.70;;;;;;5098228;28;20261;-92
2022/07/15 00:15:31;;;;;;;2.53;1.57;;;23.90;53.80;;;;;;5098082;28;20543;-93
2022/07/15 00:18:01;;;;;;;2.80;1.50;;;23.90;54.10;;;;;;5097876;28;20200;-93
2022/07/15 00:20:33;;;;;;;3.23;1.60;;;23.90;54.00;;;;;;5098640;28;20188;-92
2022/07/15 00:23:00;;;;;;;2.30;1.60;;;23.90;53.90;;;;;;5097304;28;20713;-93
2022/07/15 00:25:26;;;;;;;2.60;1.43;;;23.80;54.20;;;;;;5098187;28;20237;-92
2022/07/15 00:28:01;;;;;;;2.63;1.47;;;23.80;54.20;;;;;;5098099;28;20272;-92
2022/07/15 00:30:32;;;;;;;1.70;1.33;;;23.70;54.40;;;;;;5098308;28;20610;-91
2022/07/15 00:33:00;;;;;;;3.00;1.77;;;23.60;54.70;;;;;;5098486;28;20181;-91
2022/07/15 00:35:25;;;;;;;4.63;1.67;;;23.60;54.80;;;;;;5100366;28;20205;-91
2022/07/15 00:37:51;;;;;;;2.37;1.77;;;23.60;54.80;;;;;;5101968;28;20244;-91
2022/07/15 00:40:18;;;;;;;2.07;1.50;;;23.50;55.00;;;;;;5102225;28;20235;-91
2022/07/15 00:42:44;;;;;;;1.93;1.60;;;23.50;55.20;;;;;;5101390;28;20241;-91
2022/07/15 00:45:30;;;;;;;2.50;1.60;;;23.50;55.30;;;;;;5119482;28;20386;-91
2022/07/15 00:47:57;;;;;;;3.17;1.60;;;23.50;55.40;;;;;;5101207;28;20463;-91
2022/07/15 00:50:25;;;;;;;2.47;1.60;;;23.50;55.30;;;;;;5101544;28;20231;-91
2022/07/15 00:53:12;;;;;;;2.60;1.50;;;23.60;55.30;;;;;;5101659;28;20169;-91
2022/07/15 00:55:42;;;;;;;2.20;1.60;;;23.50;55.40;;;;;;5099437;28;20534;-91
2022/07/15 00:58:10;;;;;;;4.73;1.60;;;23.40;55.50;;;;;;5099032;28;20177;-91
2022/07/15 01:00:36;;;;;;;2.37;1.40;;;23.30;55.70;;;;;;5100256;28;20174;-92
2022/07/15 01:03:02;;;;;;;3.37;1.80;;;23.30;55.90;;;;;;5101196;28;20190;-91
2022/07/15 01:05:28;;;;;;;2.03;1.53;;;23.30;56.20;;;;;;5101053;28;20261;-91
2022/07/15 01:07:54;;;;;;;2.43;1.60;;;23.20;56.30;;;;;;5100836;28;20169;-91
2022/07/15 01:10:23;;;;;;;2.63;1.60;;;23.20;56.50;;;;;;5101015;28;20209;-91
2022/07/15 01:12:50;;;;;;;2.67;1.60;;;23.20;56.60;;;;;;5101040;28;20177;-90
2022/07/15 01:15:17;;;;;;;3.17;1.70;;;23.20;56.40;;;;;;5100913;28;20173;-91
2022/07/15 01:17:45;;;;;;;2.77;1.60;;;23.30;56.40;;;;;;5100844;28;20165;-90
2022/07/15 01:20:13;;;;;;;2.77;1.57;;;23.40;56.30;;;;;;5100871;28;20173;-91
2022/07/15 01:22:39;;;;;;;1.83;1.57;;;23.40;56.10;;;;;;5101196;28;20180;-91
2022/07/15 01:25:06;;;;;;;2.00;1.43;;;23.50;56.00;;;;;;5100830;28;20178;-91
2022/07/15 01:27:32;;;;;;;1.73;1.50;;;23.50;56.00;;;;;;5101211;28;20185;-91
2022/07/15 01:29:59;;;;;;;2.20;1.50;;;23.50;55.90;;;;;;5118893;28;20201;-91
2022/07/15 01:32:26;;;;;;;2.83;1.60;;;23.50;55.90;;;;;;5100905;28;20169;-91
2022/07/15 01:34:52;;;;;;;5.17;1.80;;;23.50;55.90;;;;;;5100404;28;20173;-91
2022/07/15 01:37:18;;;;;;;2.70;1.60;;;23.50;55.90;;;;;;5100444;28;20171;-91
2022/07/15 01:39:44;;;;;;;2.63;1.70;;;23.50;56.00;;;;;;5118245;28;20180;-91
2022/07/15 01:42:10;;;;;;;2.13;1.50;;;23.50;56.00;;;;;;5100953;28;20181;-91
2022/07/15 01:44:36;;;;;;;3.60;1.43;;;23.50;56.00;;;;;;5100103;28;20277;-91
2022/07/15 01:47:02;;;;;;;3.27;1.50;;;23.50;56.00;;;;;;5099519;28;20578;-91
2022/07/15 01:49:31;;;;;;;3.10;1.60;;;23.50;56.10;;;;;;5100317;28;20227;-91
2022/07/15 01:51:58;;;;;;;2.70;1.50;;;23.40;56.30;;;;;;5100823;28;20173;-91
2022/07/15 01:54:26;;;;;;;2.27;1.60;;;23.40;56.30;;;;;;5100260;28;20170;-91
2022/07/15 01:56:54;;;;;;;4.87;1.87;;;23.50;56.30;;;;;;5100213;28;20177;-91
2022/07/15 01:59:24;;;;;;;2.30;1.50;;;23.50;56.30;;;;;;5100907;28;20427;-91
2022/07/15 02:01:55;;;;;;;4.27;1.50;;;23.50;56.30;;;;;;5100388;28;20718;-91
2022/07/15 02:04:22;;;;;;;3.10;1.70;;;23.50;56.30;;;;;;5100196;28;20560;-91
2022/07/15 02:06:49;;;;;;;2.70;1.60;;;23.50;56.30;;;;;;5100424;28;20273;-91
2022/07/15 02:09:14;;;;;;;2.27;1.77;;;23.50;56.30;;;;;;5118684;28;20166;-91
2022/07/15 02:11:40;;;;;;;2.53;1.40;;;23.40;56.50;;;;;;5100248;28;20206;-91
2022/07/15 02:14:06;;;;;;;2.23;1.60;;;23.40;56.60;;;;;;5118061;28;20170;-91
2022/07/15 02:16:33;;;;;;;2.80;1.70;;;23.40;56.60;;;;;;5117671;28;20352;-91
2022/07/15 02:19:00;;;;;;;2.50;1.60;;;23.40;56.50;;;;;;5099883;28;20177;-90
2022/07/15 02:21:26;;;;;;;2.73;1.47;;;23.40;56.50;;;;;;5100467;28;20178;-90
2022/07/15 02:23:53;;;;;;;1.83;1.53;;;23.40;56.60;;;;;;5100206;28;20204;-92
2022/07/15 02:26:19;;;;;;;3.70;1.50;;;23.40;56.60;;;;;;5100508;28;20178;-91
2022/07/15 02:28:45;;;;;;;3.53;1.60;;;23.40;56.70;;;;;;5100361;28;20181;-90
2022/07/15 02:31:11;;;;;;;2.50;1.63;;;23.40;56.70;;;;;;5099933;28;20248;-91
2022/07/15 02:33:38;;;;;;;3.43;1.70;;;23.40;56.70;;;;;;5100700;28;20170;-91
2022/07/15 02:36:04;;;;;;;3.00;1.70;;;23.40;56.80;;;;;;5099947;28;20449;-91
2022/07/15 02:38:29;;;;;;;2.73;1.50;;;23.40;56.80;;;;;;5099986;28;20208;-91
2022/07/15 02:40:55;;;;;;;3.37;1.50;;;23.40;56.90;;;;;;5099634;28;20186;-91
2022/07/15 02:43:21;;;;;;;3.40;1.83;;;23.40;56.80;;;;;;5100125;28;20174;-91
2022/07/15 02:45:47;;;;;;;1.90;1.50;;;23.40;56.90;;;;;;5117031;28;20184;-91
2022/07/15 02:48:15;;;;;;;3.10;1.60;;;23.30;56.80;;;;;;5099608;28;20180;-91
2022/07/15 02:50:41;;;;;;;2.70;1.70;;;23.40;56.90;;;;;;5099410;28;20213;-91
2022/07/15 02:53:07;;;;;;;3.70;1.60;;;23.40;56.80;;;;;;5099513;28;20188;-91
2022/07/15 02:55:33;;;;;;;2.50;1.63;;;23.40;56.80;;;;;;5098795;28;20189;-91
2022/07/15 02:57:59;;;;;;;3.10;1.63;;;23.30;56.80;;;;;;5116744;28;20169;-91
2022/07/15 03:00:25;;;;;;;3.03;1.47;;;23.40;56.80;;;;;;5116533;28;20302;-92
2022/07/15 03:02:52;;;;;;;1.97;1.40;;;23.30;56.80;;;;;;5099222;28;20706;-91
2022/07/15 03:05:18;;;;;;;2.60;1.77;;;23.30;56.80;;;;;;5115964;28;20551;-91
2022/07/15 03:07:45;;;;;;;3.90;1.63;;;23.30;56.80;;;;;;5099006;28;20184;-91
2022/07/15 03:10:12;;;;;;;3.87;1.43;;;23.30;56.80;;;;;;5098766;28;20312;-91
2022/07/15 03:12:38;;;;;;;2.57;1.40;;;23.30;56.90;;;;;;5099030;28;20281;-91
2022/07/15 03:15:04;;;;;;;3.30;1.67;;;23.30;56.90;;;;;;5099514;28;20260;-91
2022/07/15 03:17:30;;;;;;;3.10;1.77;;;23.30;56.90;;;;;;5098278;28;20186;-91
2022/07/15 03:19:56;;;;;;;2.50;1.60;;;23.30;57.00;;;;;;5098630;28;20185;-91
2022/07/15 03:22:23;;;;;;;2.87;1.60;;;23.20;56.90;;;;;;5098816;28;20193;-90
2022/07/15 03:24:49;;;;;;;3.57;1.50;;;23.20;57.00;;;;;;5098052;28;20535;-90
2022/07/15 03:27:15;;;;;;;2.10;1.63;;;23.20;57.10;;;;;;5098372;28;20170;-91
2022/07/15 03:29:42;;;;;;;2.73;1.70;;;23.20;57.10;;;;;;5115827;28;20211;-91
2022/07/15 03:32:10;;;;;;;2.17;1.77;;;23.20;57.20;;;;;;5098372;28;20172;-91
2022/07/15 03:34:36;;;;;;;2.83;1.80;;;23.10;57.20;;;;;;5098515;28;20227;-91
2022/07/15 03:37:02;;;;;;;2.77;1.60;;;23.10;57.60;;;;;;5097959;28;20237;-91
2022/07/15 03:39:27;;;;;;;2.33;1.50;;;23.10;57.30;;;;;;5097433;28;20181;-91
2022/07/15 03:41:53;;;;;;;2.10;1.57;;;23.10;57.30;;;;;;5097941;28;20706;-91
2022/07/15 03:44:19;;;;;;;2.77;1.73;;;23.10;57.30;;;;;;5098296;28;20175;-91
2022/07/15 03:46:45;;;;;;;2.50;1.50;;;23.10;57.40;;;;;;5097934;28;20181;-91
2022/07/15 03:49:12;;;;;;;4.90;1.90;;;23.00;57.40;;;;;;5097399;28;20181;-91
2022/07/15 03:51:38;;;;;;;2.93;1.67;;;23.00;57.30;;;;;;5098619;28;20225;-91
2022/07/15 03:54:04;;;;;;;2.77;1.40;;;23.00;57.50;;;;;;5098669;28;20259;-91
2022/07/15 03:56:30;;;;;;;2.13;1.43;;;23.00;57.50;;;;;;5097679;28;20173;-91
2022/07/15 03:58:56;;;;;;;2.50;1.67;;;23.00;57.60;;;;;;5098283;28;20184;-91
2022/07/15 04:01:22;;;;;;;3.20;1.63;;;22.90;57.50;;;;;;5098241;28;20284;-91
2022/07/15 04:03:49;;;;;;;3.30;1.80;;;22.90;57.70;;;;;;5097163;28;20203;-91
2022/07/15 04:06:19;;;;;;;4.27;1.87;;;22.90;57.40;;;;;;5096914;28;20559;-91
2022/07/15 04:08:46;;;;;;;3.60;1.90;;;22.80;57.80;;;;;;5097063;28;20593;-91
2022/07/15 04:11:13;;;;;;;3.57;2.03;;;22.60;58.50;;;;;;5101413;28;20208;-91
2022/07/15 04:13:39;;;;;;;5.60;2.00;;;22.50;59.00;;;;;;5102020;28;20172;-91
2022/07/15 04:16:06;;;;;;;3.80;2.10;;;22.40;59.10;;;;;;5102068;28;20176;-91
2022/07/15 04:18:32;;;;;;;2.63;1.77;;;22.30;59.60;;;;;;5101873;28;20180;-91
2022/07/15 04:20:58;;;;;;;2.73;1.77;;;22.30;59.90;;;;;;5101387;28;20179;-91
2022/07/15 04:23:24;;;;;;;3.70;1.80;;;22.30;60.00;;;;;;5101310;28;20174;-92
2022/07/15 04:25:53;;;;;;;3.73;1.73;;;22.40;59.80;;;;;;5101382;28;20820;-92
2022/07/15 04:28:20;;;;;;;3.17;1.90;;;22.30;59.80;;;;;;5118763;28;20175;-92
2022/07/15 04:30:46;;;;;;;3.53;1.70;;;22.30;60.00;;;;;;5101230;28;20206;-92
2022/07/15 04:33:12;;;;;;;3.17;1.83;;;22.40;60.00;;;;;;5101026;28;20180;-92
2022/07/15 04:35:38;;;;;;;3.50;1.80;;;22.50;59.70;;;;;;5101141;28;20171;-93
2022/07/15 04:38:04;;;;;;;3.30;1.83;;;22.50;59.90;;;;;;5100191;28;20171;-92
2022/07/15 04:40:32;;;;;;;2.93;1.80;;;22.60;60.00;;;;;;5100294;28;20529;-92
2022/07/15 04:42:58;;;;;;;3.10;1.70;;;22.60;59.60;;;;;;5100634;28;20197;-92
2022/07/15 04:45:25;;;;;;;2.60;1.80;;;22.70;59.70;;;;;;5099734;28;20182;-92
2022/07/15 04:47:51;;;;;;;2.13;1.60;;;22.70;59.50;;;;;;5099782;28;20176;-92
2022/07/15 04:53:01;;;;;;;3.73;2.00;;;22.90;59.00;;;;;;5117455;28;20182;-91
2022/07/15 04:55:27;;;;;;;5.10;1.80;;;22.90;58.60;;;;;;5099374;28;20189;-92
2022/07/15 04:57:53;;;;;;;3.80;1.73;;;23.00;58.50;;;;;;5100572;28;20170;-92
2022/07/15 05:00:25;;;;;;;1.73;1.33;;;23.10;58.30;;;;;;5099295;28;20592;-92
2022/07/15 05:02:51;;;;;;;2.80;1.70;;;23.10;58.30;;;;;;5099283;28;20203;-93
2022/07/15 05:05:18;;;;;;;3.10;1.90;;;23.20;58.30;;;;;;5117502;28;20170;-92
2022/07/15 05:07:45;;;;;;;3.60;1.83;;;23.30;57.90;;;;;;5099264;28;20233;-92
2022/07/15 05:10:11;;;;;;;3.57;1.90;;;23.30;57.70;;;;;;5098656;28;20198;-92
2022/07/15 05:12:38;;;;;;;3.13;1.73;;;23.40;57.80;;;;;;5099508;28;20170;-93
2022/07/15 05:15:04;;;;;;;2.93;1.73;;;23.40;57.60;;;;;;5099374;28;20181;-93
2022/07/15 05:17:30;;;;;;;3.07;1.77;;;23.40;57.40;;;;;;5099584;28;20170;-92
2022/07/15 05:19:56;;;;;;;2.57;1.60;;;23.50;57.30;;;;;;5099193;28;20337;-92
2022/07/15 05:22:22;;;;;;;3.50;1.60;;;23.60;57.20;;;;;;5097969;28;20232;-92
2022/07/15 05:24:48;;;;;;;1.67;1.50;;;23.60;57.00;;;;;;5099710;28;20174;-92
2022/07/15 05:27:15;;;;;;;2.23;1.50;;;23.60;56.90;;;;;;5098343;28;20450;-92
2022/07/15 05:29:41;;;;;;;2.13;1.63;;;23.70;56.90;;;;;;5099527;28;20170;-93
2022/07/15 05:32:07;;;;;;;1.80;1.57;;;23.70;56.80;;;;;;5097199;28;20417;-93
2022/07/15 05:34:33;;;;;;;3.37;1.67;;;23.80;56.70;;;;;;5098594;28;20202;-92
2022/07/15 05:36:59;;;;;;;2.80;1.60;;;23.90;56.30;;;;;;5098848;28;20181;-93
2022/07/15 05:39:25;;;;;;;3.37;1.80;;;24.00;56.10;;;;;;5098554;28;20322;-93
2022/07/15 05:41:50;;;;;;;2.43;1.53;;;24.10;55.80;;;;;;5098514;28;20485;-92
2022/07/15 05:44:16;;;;;;;3.60;1.80;;;24.20;55.70;;;;;;5098344;28;20205;-93
2022/07/15 05:46:42;;;;;;;2.10;1.40;;;24.30;55.30;;;;;;5098045;28;20231;-92
2022/07/15 05:49:10;;;;;;;1.70;1.50;;;24.40;55.20;;;;;;5097891;28;20273;-93
2022/07/15 05:51:36;;;;;;;2.40;1.57;;;24.50;54.90;;;;;;5096762;28;20206;-93
2022/07/15 05:54:02;;;;;;;3.80;1.80;;;24.60;54.70;;;;;;5097934;28;20403;-93
2022/07/15 05:56:28;;;;;;;1.73;1.53;;;24.60;54.40;;;;;;5098053;28;20567;-93
2022/07/15 05:58:54;;;;;;;3.03;1.47;;;24.80;54.30;;;;;;5096722;28;20166;-92
2022/07/15 06:01:21;;;;;;;1.90;1.70;;;24.90;54.10;;;;;;5096598;28;20193;-91
2022/07/15 06:03:47;;;;;;;2.33;1.60;;;25.00;53.80;;;;;;5097014;28;20181;-91
2022/07/15 06:06:13;;;;;;;3.60;1.60;;;25.20;53.60;;;;;;5096495;28;20181;-91
2022/07/15 06:08:39;;;;;;;2.10;1.63;;;25.20;53.40;;;;;;5096341;28;20227;-92
2022/07/15 06:11:05;;;;;;;1.93;1.40;;;25.40;53.30;;;;;;5095612;28;20194;-92
2022/07/15 06:13:31;;;;;;;1.87;1.50;;;25.50;53.10;;;;;;5095893;28;20238;-91
2022/07/15 06:15:56;;;;;;;1.57;1.43;;;25.60;52.80;;;;;;5096364;28;20173;-92
2022/07/15 06:18:22;;;;;;;2.53;1.60;;;25.70;52.60;;;;;;5095135;28;20171;-91
2022/07/15 06:20:48;;;;;;;2.20;1.40;;;25.80;52.50;;;;;;5095751;28;20175;-91
2022/07/15 06:23:14;;;;;;;2.17;1.50;;;25.90;52.30;;;;;;5096287;28;20175;-91
2022/07/15 06:25:39;;;;;;;1.93;1.60;;;26.00;52.20;;;;;;5096013;28;20309;-92
2022/07/15 06:28:07;;;;;;;1.93;1.60;;;26.10;52.10;;;;;;5094927;28;20170;-92
2022/07/15 06:30:33;;;;;;;2.67;1.60;;;26.20;52.00;;;;;;5095463;28;20288;-92
2022/07/15 06:32:58;;;;;;;1.70;1.60;;;26.20;51.80;;;;;;5095948;28;20273;-91
2022/07/15 06:35:24;;;;;;;3.80;1.70;;;26.40;51.80;;;;;;5096659;28;20264;-92
2022/07/15 06:37:51;;;;;;;3.40;1.83;;;26.50;51.50;;;;;;5095549;28;20231;-92
2022/07/15 06:40:17;;;;;;;1.70;1.60;;;26.60;51.50;;;;;;5095488;28;20178;-92
2022/07/15 06:42:43;;;;;;;3.40;1.60;;;26.70;51.40;;;;;;5095851;28;20272;-93
2022/07/15 06:45:10;;;;;;;2.43;1.50;;;26.70;51.20;;;;;;5113835;28;20217;-93
2022/07/15 06:47:39;;;;;;;2.00;1.50;;;26.80;51.00;;;;;;5095883;28;20173;-93
2022/07/15 06:50:05;;;;;;;2.70;1.50;;;27.00;51.00;;;;;;5094570;28;20210;-93
2022/07/15 06:52:31;;;;;;;2.97;1.63;;;27.00;50.80;;;;;;5095717;28;20267;-92
2022/07/15 06:54:57;;;;;;;1.90;1.40;;;27.20;50.80;;;;;;5093860;28;20293;-93
2022/07/15 06:57:23;;;;;;;2.30;1.50;;;27.30;50.70;;;;;;5095121;28;20265;-93
2022/07/15 06:59:48;;;;;;;3.17;1.70;;;27.30;50.60;;;;;;5094680;28;20173;-93
2022/07/15 07:02:14;;;;;;;2.03;1.60;;;27.50;50.50;;;;;;5094492;28;20174;-93
2022/07/15 07:04:42;;;;;;;1.63;1.33;;;27.60;50.20;;;;;;5094070;28;20243;-94
2022/07/15 07:07:08;;;;;;;3.47;1.63;;;27.70;50.10;;;;;;5095274;28;20184;-94
2022/07/15 07:09:33;;;;;;;1.60;1.50;;;28.00;50.00;;;;;;5095437;28;20185;-92
2022/07/15 07:11:59;;;;;;;1.90;1.60;;;28.20;49.70;;;;;;5094725;28;20174;-92
2022/07/15 07:14:25;;;;;;;2.53;1.53;;;28.00;49.40;;;;;;5094682;28;20163;-92
2022/07/15 07:16:51;;;;;;;2.73;1.60;;;27.80;49.50;;;;;;5095592;28;20265;-92
2022/07/15 07:19:17;;;;;;;3.03;1.77;;;27.70;49.70;;;;;;5094629;28;20166;-92
2022/07/15 07:21:43;;;;;;;4.07;1.60;;;27.90;49.30;;;;;;5093571;28;20273;-92
2022/07/15 07:24:08;;;;;;;2.57;1.57;;;27.80;49.10;;;;;;5110495;28;20178;-92
2022/07/15 07:26:35;;;;;;;3.00;1.57;;;27.60;49.40;;;;;;5092868;28;20174;-91
2022/07/15 07:29:00;;;;;;;3.30;1.47;;;27.80;49.40;;;;;;5093455;28;20174;-92
2022/07/15 07:31:26;;;;;;;2.13;1.60;;;28.60;48.70;;;;;;5092815;28;20217;-91
2022/07/15 07:33:57;;;;;;;2.70;1.50;;;29.40;48.00;;;;;;5091805;28;20205;-92
2022/07/15 07:36:23;;;;;;;2.77;1.80;;;29.00;47.70;;;;;;5093119;28;20177;-92
2022/07/15 07:38:49;;;;;;;1.90;1.70;;;28.60;48.00;;;;;;5092403;28;20227;-91
2022/07/15 07:41:15;;;;;;;2.80;1.70;;;28.30;48.20;;;;;;5092508;28;20265;-92
2022/07/15 07:43:41;;;;;;;3.03;1.70;;;28.10;48.50;;;;;;5093455;28;20320;-92
2022/07/15 07:46:07;;;;;;;3.07;1.50;;;27.90;48.60;;;;;;5110335;28;20189;-92
2022/07/15 07:48:33;;;;;;;4.50;1.57;;;27.70;48.80;;;;;;5093160;28;20174;-92
2022/07/15 07:50:59;;;;;;;2.97;1.67;;;27.60;48.90;;;;;;5093207;28;20330;-92
2022/07/15 07:53:25;;;;;;;5.03;1.60;;;27.50;48.90;;;;;;5091895;28;20238;-92
2022/07/15 07:55:51;;;;;;;2.07;1.43;;;27.40;49.00;;;;;;5091652;28;20174;-92
2022/07/15 07:58:20;;;;;;;2.23;1.70;;;27.40;49.00;;;;;;5090494;28;20174;-92
2022/07/15 08:00:46;;;;;;;4.73;1.90;;;27.40;49.10;;;;;;5091768;28;20181;-92
2022/07/15 08:03:12;;;;;;;2.30;1.50;;;27.30;49.10;;;;;;5092250;28;20501;-92
2022/07/15 08:05:38;;;;;;;4.23;1.77;;;27.30;49.00;;;;;;5091463;28;20520;-92
2022/07/15 08:08:16;;;;;;;1.63;1.40;;;27.60;48.70;;;;;;5092322;28;20201;-91
2022/07/15 08:10:45;;;;;;;2.10;1.47;;;27.90;48.50;;;;;;5090653;28;20663;-92
2022/07/15 08:13:12;;;;;;;3.30;1.75;;;27.90;48.50;;;;;;5088766;28;20172;-91
2022/07/15 08:15:40;;;;;;;1.98;1.70;;;28.20;48.40;;;;;;5092783;28;20235;-92
2022/07/15 08:18:06;;;;;;;2.47;1.60;;;29.20;47.40;;;;;;5091335;28;20198;-92
2022/07/15 08:20:35;;;;;;;1.63;1.45;;;30.30;46.90;;;;;;5109520;28;20421;-93
2022/07/15 08:23:02;;;;;;;1.90;1.55;;;31.20;45.90;;;;;;5092014;28;20166;-93
2022/07/15 08:25:30;;;;;;;3.28;1.77;;;31.70;45.20;;;;;;5090337;28;20170;-93
2022/07/15 08:27:59;;;;;;;2.90;1.80;;;31.50;45.20;;;;;;5091289;28;20216;-92
2022/07/15 08:30:26;;;;;;;2.08;1.63;;;31.00;45.10;;;;;;5089998;28;20486;-93
2022/07/15 08:32:52;;;;;;;2.50;1.73;;;31.40;45.20;;;;;;5090588;28;20687;-92
2022/07/15 08:35:18;;;;;;;3.65;1.90;;;31.80;44.70;;;;;;5091423;28;20174;-93
2022/07/15 08:37:44;;;;;;;3.00;1.58;;;32.00;44.60;;;;;;5091456;28;20228;-91
2022/07/15 08:40:11;;;;;;;4.35;1.65;;;31.40;44.70;;;;;;5107687;28;20174;-91
2022/07/15 08:42:41;;;;;;;2.22;1.50;;;30.40;45.40;;;;;;5101014;28;20538;-90
2022/07/15 08:45:08;;;;;;;4.15;1.75;;;29.60;46.10;;;;;;5090011;28;20176;-90
2022/07/15 08:47:36;;;;;;;2.25;1.70;;;29.10;46.80;;;;;;5091065;28;20170;-90
2022/07/15 08:50:03;;;;;;;3.20;1.70;;;28.70;47.60;;;;;;5108534;28;20403;-91
2022/07/15 08:52:36;;;;;;;3.17;1.55;;;28.40;47.40;;;;;;5091569;28;20178;-90
2022/07/15 08:55:02;;;;;;;3.15;1.85;;;28.20;47.80;;;;;;5090186;28;20409;-90
2022/07/15 08:57:29;;;;;;;4.20;1.70;;;28.00;47.70;;;;;;5093650;28;20496;-90
2022/07/15 08:59:55;;;;;;;2.22;1.50;;;28.90;47.50;;;;;;5094121;28;20322;-90
2022/07/15 09:02:22;;;;;;;3.10;1.60;;;30.20;46.90;;;;;;5094910;28;20173;-91
2022/07/15 09:05:23;;;;;;;4.50;1.67;;;30.50;46.00;;;;;;5093714;28;20251;-89
2022/07/15 09:08:06;;;;;;;5.18;1.80;;;30.00;46.20;;;;;;5094347;28;20183;-90
2022/07/15 09:10:53;;;;;;;3.50;1.63;;;29.20;46.60;;;;;;5094587;28;20229;-90
2022/07/15 09:13:32;;;;;;;4.32;1.80;;;28.80;47.10;;;;;;5093343;28;20206;-90
2022/07/15 09:16:21;;;;;;;2.65;1.50;;;28.50;47.50;;;;;;5093961;28;20189;-90
2022/07/15 09:18:49;;;;;;;3.05;1.67;;;28.40;47.60;;;;;;5094369;28;20543;-90
2022/07/15 09:21:28;;;;;;;4.25;1.80;;;28.20;47.90;;;;;;5094509;28;20177;-90
2022/07/15 09:23:54;;;;;;;3.13;1.50;;;28.00;47.90;;;;;;5093803;28;20174;-90
2022/07/15 09:26:36;;;;;;;3.97;1.60;;;28.20;47.90;;;;;;5093818;28;20336;-91
2022/07/15 09:33:33;;;;;;;2.95;1.90;;;28.50;47.70;;;;;;5093273;28;20539;-91
2022/07/15 09:35:01;;;;;;;2.72;1.88;;;28.80;47.20;;;;;;5110625;28;20165;-89
2022/07/15 09:37:27;;;;;;;4.70;2.13;;;28.80;47.30;;;;;;5093757;28;20187;-90
2022/07/15 09:39:57;;;;;;;3.45;1.70;;;28.70;45.30;;;;;;5091568;28;20170;-91
2022/07/15 09:42:23;;;;;;;3.40;1.80;;;28.50;47.00;;;;;;5110245;28;20211;-90
2022/07/15 09:44:50;;;;;;;4.57;1.60;;;28.50;46.20;;;;;;5092153;28;20594;-90
2022/07/15 09:47:22;;;;;;;4.10;1.80;;;28.50;47.10;;;;;;5094177;28;20434;-90
2022/07/15 09:49:48;;;;;;;3.53;1.67;;;28.40;47.10;;;;;;5092400;28;20336;-90
2022/07/15 09:52:15;;;;;;;4.57;1.70;;;28.30;47.30;;;;;;5093385;28;20260;-91
2022/07/15 09:54:43;;;;;;;4.43;1.83;;;28.30;47.30;;;;;;5092147;28;20787;-91
2022/07/15 09:57:15;;;;;;;3.45;1.60;;;28.20;47.30;;;;;;5110694;28;20267;-90
2022/07/15 09:59:43;;;;;;;4.03;1.70;;;28.20;47.50;;;;;;5092609;28;20177;-91
2022/07/15 10:02:09;;;;;;;3.05;1.70;;;28.10;47.20;;;;;;5092218;28;20235;-90
2022/07/15 10:04:35;;;;;;;5.33;1.70;;;28.10;47.50;;;;;;5091513;28;20186;-90
2022/07/15 10:07:04;;;;;;;6.10;1.80;;;28.10;47.50;;;;;;5110342;28;20575;-90
2022/07/15 10:09:35;;;;;;;6.30;1.98;;;28.10;47.60;;;;;;5093523;28;20166;-91
2022/07/15 10:12:12;;;;;;;7.07;2.13;;;28.00;47.70;;;;;;5092673;28;20476;-91
2022/07/15 10:15:22;;;;;;;4.10;2.00;;;28.00;47.80;;;;;;5092163;28;20523;-91
2022/07/15 10:18:34;;;;;;;5.10;1.90;;;27.90;46.70;;;;;;5036315;28;20174;-91
2022/07/15 10:21:17;;;;;;;3.25;1.90;;;27.80;47.40;;;;;;5091719;28;20170;-91
2022/07/15 10:24:05;;;;;;;4.00;2.20;;;27.80;47.60;;;;;;5091357;28;20450;-91
2022/07/15 10:26:50;;;;;;;3.73;1.80;;;27.60;47.30;;;;;;5093214;28;20321;-91
2022/07/15 10:29:16;;;;;;;5.33;2.03;;;27.60;47.40;;;;;;5092685;28;20177;-89
2022/07/15 10:31:44;;;;;;;6.60;1.92;;;27.60;47.80;;;;;;5091328;28;20591;-89
2022/07/15 10:34:13;;;;;;;3.47;1.70;;;27.60;48.00;;;;;;5108557;28;20216;-89
2022/07/15 10:36:54;;;;;;;7.40;1.95;;;27.70;48.00;;;;;;5090178;28;20190;-89
2022/07/15 10:39:26;;;;;;;3.83;2.08;;;27.80;47.90;;;;;;5090788;28;20374;-90
2022/07/15 10:41:56;;;;;;;6.10;1.93;;;27.80;47.90;;;;;;5090613;28;20178;-90
2022/07/15 10:44:24;;;;;;;5.32;2.00;;;27.80;48.00;;;;;;5091714;28;20472;-90
2022/07/15 10:47:12;;;;;;;4.00;1.90;;;27.80;47.90;;;;;;5090971;28;20285;-90
2022/07/15 10:49:38;;;;;;;3.90;1.98;;;27.90;47.90;;;;;;5089339;28;20186;-90
2022/07/15 10:52:24;;;;;;;3.60;1.90;;;27.90;47.80;;;;;;5089656;28;20285;-90
2022/07/15 10:54:55;;;;;;;3.40;1.60;;;27.90;47.80;;;;;;5089990;28;20307;-90
2022/07/15 10:57:42;;;;;;;5.05;1.73;;;27.90;47.90;;;;;;5092254;28;20178;-91
2022/07/15 11:00:28;;;;;;;4.18;1.90;;;27.90;47.10;;;;;;5072649;28;20209;-89
2022/07/15 11:03:09;;;;;;;3.28;1.98;;;27.70;46.90;;;;;;5090520;28;20186;-90
2022/07/15 11:05:53;;;;;;;3.67;1.83;;;27.60;47.80;;;;;;5091543;28;20174;-91
2022/07/15 11:08:31;;;;;;;3.63;1.70;;;27.60;47.80;;;;;;5091770;28;20548;-91
2022/07/15 11:11:16;;;;;;;6.67;1.70;;;27.60;48.00;;;;;;5090998;28;20212;-90
2022/07/15 11:13:46;;;;;;;4.30;1.95;;;27.60;48.00;;;;;;5091358;28;20204;-91
2022/07/15 11:16:13;;;;;;;3.00;1.80;;;27.60;48.00;;;;;;5090903;28;20296;-90
2022/07/15 11:18:50;;;;;;;3.27;2.10;;;27.60;47.70;;;;;;5090490;28;20170;-90
2022/07/15 11:21:17;;;;;;;2.60;1.77;;;27.60;47.90;;;;;;5091342;28;20182;-90
2022/07/15 11:23:47;;;;;;;4.27;1.80;;;27.60;47.60;;;;;;5091606;28;20174;-90
2022/07/15 11:26:13;;;;;;;3.00;1.77;;;27.60;47.70;;;;;;5091173;28;20352;-90
2022/07/15 11:28:55;;;;;;;2.40;1.90;;;27.50;48.00;;;;;;5091476;28;20200;-91
2022/07/15 11:31:22;;;;;;;4.37;2.03;;;27.50;48.10;;;;;;5090818;28;20651;-90
2022/07/15 11:33:55;;;;;;;3.47;1.90;;;27.40;48.00;;;;;;5090699;28;20198;-90
2022/07/15 11:36:23;;;;;;;3.42;1.67;;;27.20;48.10;;;;;;5092360;28;20170;-90
2022/07/15 11:38:50;;;;;;;4.77;1.90;;;27.20;47.90;;;;;;5092382;28;20166;-90
2022/07/15 11:46:54;;;;;;;2.77;1.70;;;27.10;48.40;;;;;;5109947;28;20169;-89
2022/07/15 11:49:31;;;;;;;2.50;1.50;;;27.20;48.40;;;;;;5093213;28;20170;-90
2022/07/15 11:51:58;;;;;;;3.27;1.50;;;27.20;48.30;;;;;;5093640;28;20437;-89
2022/07/15 11:54:25;;;;;;;3.83;1.73;;;27.30;48.50;;;;;;5091542;28;20178;-90
2022/07/15 11:56:59;;;;;;;2.10;1.70;;;27.20;48.00;;;;;;5092437;28;20166;-90
2022/07/15 11:59:25;;;;;;;3.73;1.73;;;27.30;48.30;;;;;;5074915;28;20178;-89
2022/07/15 12:02:09;;;;;;;3.10;1.60;;;27.30;48.40;;;;;;5090542;28;20170;-89
2022/07/15 12:04:36;;;;;;;4.00;1.80;;;27.20;48.00;;;;;;5091392;28;20190;-89
2022/07/15 12:07:02;;;;;;;3.93;1.90;;;27.20;48.00;;;;;;5092197;28;20181;-90
2022/07/15 12:09:46;;;;;;;2.70;1.40;;;27.10;48.00;;;;;;5093644;28;20170;-91
2022/07/15 12:12:12;;;;;;;3.50;1.67;;;27.00;48.20;;;;;;5093156;28;20563;-92
2022/07/15 12:14:39;;;;;;;2.67;1.63;;;27.00;48.20;;;;;;5095426;28;20170;-91
2022/07/15 12:17:05;;;;;;;2.53;1.50;;;27.10;48.50;;;;;;5092178;28;20399;-91
2022/07/15 12:19:33;;;;;;;5.10;1.90;;;27.10;48.20;;;;;;5091659;28;20167;-91
2022/07/15 12:22:05;;;;;;;3.60;1.60;;;27.10;48.60;;;;;;5092442;28;20178;-91
2022/07/15 12:24:50;;;;;;;2.77;1.60;;;27.10;47.70;;;;;;5093282;28;20182;-91
2022/07/15 12:27:15;;;;;;;3.20;1.43;;;27.10;48.10;;;;;;5093021;28;20170;-90
2022/07/15 12:29:42;;;;;;;4.93;1.70;;;27.10;48.00;;;;;;5092839;28;20193;-91
2022/07/15 12:32:10;;;;;;;2.93;1.53;;;27.20;47.70;;;;;;5097406;28;20216;-90
2022/07/15 12:34:56;;;;;;;4.00;1.57;;;27.20;48.20;;;;;;5095290;28;20166;-91
2022/07/15 12:37:32;;;;;;;2.50;1.60;;;27.20;47.50;;;;;;5098833;28;20234;-91
2022/07/15 12:40:12;;;;;;;4.43;1.80;;;27.30;48.50;;;;;;5096998;28;20162;-91
2022/07/15 12:42:41;;;;;;;3.07;1.63;;;27.30;48.50;;;;;;5097736;28;20173;-91
2022/07/15 12:45:13;;;;;;;3.20;1.50;;;27.20;48.10;;;;;;5098003;28;20548;-90
2022/07/15 12:48:11;;;;;;;4.30;1.80;;;27.20;48.50;;;;;;5097365;28;20220;-90
2022/07/15 12:50:43;;;;;;;2.63;1.50;;;27.30;48.70;;;;;;5096379;28;20233;-90
2022/07/15 12:53:09;;;;;;;3.07;1.50;;;27.20;48.50;;;;;;5095981;28;20181;-89
2022/07/15 12:55:48;;;;;;;2.90;1.80;;;27.20;48.50;;;;;;5094119;28;20433;-90
2022/07/15 12:58:16;;;;;;;2.97;1.50;;;27.20;48.60;;;;;;5096607;28;20566;-90
2022/07/15 13:00:44;;;;;;;4.27;1.37;;;27.20;48.30;;;;;;5095155;28;20611;-89
2022/07/15 13:03:16;;;;;;;3.13;1.50;;;27.20;47.70;;;;;;5095258;28;20238;-89
2022/07/15 13:05:47;;;;;;;1.57;1.20;;;27.20;47.80;;;;;;5094794;28;20170;-89
2022/07/15 13:08:17;;;;;;;2.50;1.40;;;27.10;47.90;;;;;;5096624;28;20170;-90